Latest Coastal Weather Observations for Creal Reef

IDQ60701

Issued at 3:11 pm EST Friday 27 March 2015 (issued every 10 minutes, with the page automatically refreshed every 10 minutes)

About coastal observations | Map of coastal stations | Coastal observations for QLD | Marine services | Other Formats
Station Details ID: 200736 Name: CREAL REEF Lat: -20.53 Lon: 150.38 Height: 1.7 m
Data from the previous 72 hours. | See also: Recent months for locations in Queensland
Date/Time
EST
Temp

°C
Wind Pressure Rain
since 9am
mm
Weather Cloud Vis
km
Sea
Height
m
Swell
Dir
 
Speed
knots
Gust
knots
hPa Trend Height
m
Period
s
Dir
27/03:00pm 26.8 SE 13 16 1013.9 - - - - - - - - -
27/02:30pm 27.0 ESE 13 15 1014.1 - - - - - - - - -
27/02:20pm 27.0 ESE 13 - 1014.0 - - - - - - - - -
27/02:00pm 26.9 ESE 13 15 1014.3 - - - - - - - - -
27/01:30pm 27.1 ESE 13 15 1014.7 - - - - - - - - -
27/01:20pm 27.0 ESE 13 - 1014.7 - - - - - - - - -
27/01:00pm 27.1 ESE 12 14 1015.0 - - - - - - - - -
27/12:30pm 27.3 SE 13 15 1015.5 - - - - - - - - -
27/12:20pm 27.2 SE 13 - 1015.5 - - - - - - - - -
27/12:00pm 27.2 ESE 14 16 1016.0 - - - - - - - - -
27/11:30am 27.2 ESE 14 16 1016.5 - - - - - - - - -
27/11:20am 27.1 ESE 14 - 1016.6 - - - - - - - - -
27/11:00am 27.3 E 12 14 1017.0 - - - - - - - - -
27/10:30am 27.4 ESE 13 15 1017.4 - - - - - - - - -
27/10:20am 27.3 ESE 12 - 1017.4 - - - - - - - - -
27/10:00am 27.2 E 10 12 1017.6 - - - - - - - - -
27/09:30am 27.2 E 11 13 1017.6 - - - - - - - - -
27/09:20am 27.2 E 11 - 1017.5 - - - - - - - - -
27/09:00am 27.1 E 11 14 1017.5 - - - - - - - - -
27/08:30am 27.2 E 12 14 1017.4 - - - - - - - - -
27/08:20am 27.2 E 12 - 1017.4 - - - - - - - - -
27/08:00am 27.1 E 13 17 1017.2 - - - - - - - - -
27/07:30am 27.0 E 14 16 1016.9 - - - - - - - - -
27/07:20am 27.0 E 14 - 1016.7 - - - - - - - - -
27/07:00am 26.9 ESE 15 18 1016.7 - - - - - - - - -
27/06:30am 27.0 E 15 19 1016.5 - - - - - - - - -
27/06:20am 26.8 E 16 - 1016.3 - - - - - - - - -
27/06:00am 26.8 E 16 19 1016.2 - - - - - - - - -
27/05:30am 27.0 ENE 15 17 1015.9 - - - - - - - - -
27/05:20am 26.8 E 16 - 1015.7 - - - - - - - - -
27/05:00am 26.7 ENE 16 20 1015.6 - - - - - - - - -
27/04:30am 26.9 ENE 17 19 1015.4 - - - - - - - - -
27/04:20am 26.9 ENE 17 - 1015.2 - - - - - - - - -
27/04:00am 26.8 ENE 16 19 1015.2 - - - - - - - - -
27/03:30am 26.7 ENE 13 14 1015.1 - - - - - - - - -
27/03:20am 26.8 ENE 13 - 1015.0 - - - - - - - - -
27/03:00am 26.9 E 14 16 1015.3 - - - - - - - - -
27/02:30am 26.9 ENE 15 17 1015.4 - - - - - - - - -
27/02:20am 27.0 ENE 14 - 1015.3 - - - - - - - - -
27/02:00am 26.9 E 14 16 1015.5 - - - - - - - - -
27/01:30am 27.0 E 16 19 1015.6 - - - - - - - - -
27/01:20am 26.9 E 16 - 1015.7 - - - - - - - - -
27/01:00am 27.0 E 16 19 1015.9 - - - - - - - - -
27/12:30am 27.1 E 16 18 1016.1 - - - - - - - - -
27/12:20am 26.7 E 14 - 1016.0 - - - - - - - - -
27/12:00am 25.7 ENE 13 26 1016.3 - - - - - - - - -
 
Date/Time
EST
Temp

°C
Wind Pressure Rain
since 9am
mm
Weather Cloud Vis
km
Sea
Height
m
Swell
Dir
 
Speed
knots
Gust
knots
hPa Trend Height
m
Period
s
Dir
26/11:54pm 26.0 ESE 16 26 1016.4 - - - - - - - - -
26/11:30pm 27.0 ESE 15 17 1016.4 - - - - - - - - -
26/11:20pm 26.8 ESE 14 - 1016.4 - - - - - - - - -
26/11:05pm 26.1 E 15 27 1016.7 - - - - - - - - -
26/11:00pm 27.0 ENE 15 16 1016.7 - - - - - - - - -
26/10:30pm 26.4 ENE 14 22 1016.6 - - - - - - - - -
26/10:20pm 27.3 E 15 - 1016.5 - - - - - - - - -
26/10:00pm 27.3 E 14 17 1016.8 - - - - - - - - -
26/09:30pm 27.3 E 13 15 1016.8 - - - - - - - - -
26/09:20pm 27.1 E 13 - 1016.8 - - - - - - - - -
26/09:00pm 27.2 E 13 15 1016.8 - - - - - - - - -
26/08:30pm 27.3 E 13 15 1016.5 - - - - - - - - -
26/08:20pm 27.3 E 13 - 1016.3 - - - - - - - - -
26/08:00pm 27.2 E 13 15 1016.2 - - - - - - - - -
26/07:30pm 27.2 ESE 13 15 1016.0 - - - - - - - - -
26/07:20pm 27.4 E 13 - 1015.8 - - - - - - - - -
26/07:00pm 27.2 ESE 14 16 1015.7 - - - - - - - - -
26/06:30pm 27.4 ESE 14 15 1015.3 - - - - - - - - -
26/06:20pm 27.3 E 14 - 1015.1 - - - - - - - - -
26/06:00pm 27.2 E 14 17 1014.9 - - - - - - - - -
26/05:30pm 27.2 E 14 16 1014.6 - - - - - - - - -
26/05:20pm 27.4 ESE 15 - 1014.4 - - - - - - - - -
26/05:00pm 27.3 ESE 14 16 1014.2 - - - - - - - - -
26/04:30pm 26.9 SE 7 9 1014.1 - - - - - - - - -
26/04:20pm 26.6 SSE 7 - 1013.9 - - - - - - - - -
26/04:00pm 25.9 SSE 10 11 1013.8 - - - - - - - - -
26/03:30pm 25.6 SE 18 21 1013.8 - - - - - - - - -
26/03:20pm 26.3 SSE 13 - 1013.7 - - - - - - - - -
26/03:00pm 26.5 SSE 10 15 1013.9 - - - - - - - - -
26/02:30pm 27.3 S 12 15 1014.0 - - - - - - - - -
26/02:20pm 27.5 S 12 - 1014.0 - - - - - - - - -
26/02:00pm 27.3 S 12 14 1014.2 - - - - - - - - -
26/01:30pm 27.4 S 10 12 1014.6 - - - - - - - - -
26/01:21pm 27.2 S 10 - 1014.7 - - - - - - - - -
26/01:00pm 27.4 S 9 11 1015.1 - - - - - - - - -
26/12:30pm 27.3 SSE 8 11 1015.6 - - - - - - - - -
26/12:21pm 27.4 S 8 - 1015.6 - - - - - - - - -
26/12:00pm 27.3 SE 7 10 1016.1 - - - - - - - - -
26/11:30am 27.4 SE 7 9 1016.5 - - - - - - - - -
26/11:21am 27.4 SE 6 - 1016.5 - - - - - - - - -
26/11:00am 27.3 ESE 7 8 1016.8 - - - - - - - - -
26/10:30am 27.1 ESE 6 9 1016.9 - - - - - - - - -
26/10:21am 27.2 ESE 7 - 1016.9 - - - - - - - - -
26/10:00am 27.0 ESE 6 8 1017.1 - - - - - - - - -
26/09:30am 26.9 E 8 11 1017.0 - - - - - - - - -
26/09:21am 27.0 E 9 - 1016.9 - - - - - - - - -
26/09:00am 27.1 E 7 9 1017.2 - - - - - - - - -
26/08:30am 27.0 E 7 9 1017.0 - - - - - - - - -
26/08:21am 27.0 E 8 - 1016.7 - - - - - - - - -
26/08:00am 26.8 E 10 12 1016.8 - - - - - - - - -
26/07:30am 26.7 E 12 13 1016.3 - - - - - - - - -
26/07:21am 26.6 E 12 - 1016.1 - - - - - - - - -
26/07:00am 26.7 E 12 14 1016.0 - - - - - - - - -
26/06:30am 26.4 E 10 12 1015.8 - - - - - - - - -
26/06:21am 26.5 E 10 - 1015.6 - - - - - - - - -
26/06:00am 26.3 ENE 10 12 1015.3 - - - - - - - - -
26/05:30am 26.4 E 10 13 1015.2 - - - - - - - - -
26/05:21am 26.4 ENE 10 - 1014.9 - - - - - - - - -
26/05:00am 26.4 ENE 11 14 1014.8 - - - - - - - - -
26/04:30am 26.2 NE 11 14 1014.5 - - - - - - - - -
26/04:21am 26.2 ENE 11 - 1014.2 - - - - - - - - -
26/04:00am 26.1 ENE 11 13 1014.2 - - - - - - - - -
26/03:30am 26.2 ENE 10 12 1014.0 - - - - - - - - -
26/03:21am 26.1 ENE 10 - 1014.0 - - - - - - - - -
26/03:00am 26.2 ENE 11 12 1014.3 - - - - - - - - -
26/02:30am 26.2 E 11 13 1014.4 - - - - - - - - -
26/02:21am 26.3 E 11 - 1014.3 - - - - - - - - -
26/02:00am 26.3 E 11 13 1014.5 - - - - - - - - -
26/01:30am 26.3 E 11 13 1014.7 - - - - - - - - -
26/01:21am 26.5 E 10 - 1014.8 - - - - - - - - -
26/01:00am 26.4 ENE 11 13 1015.0 - - - - - - - - -
26/12:30am 26.5 E 10 13 1015.3 - - - - - - - - -
26/12:21am 26.3 E 11 - 1015.3 - - - - - - - - -
26/12:00am 26.4 E 11 14 1015.5 - - - - - - - - -
 
Date/Time
EST
Temp

°C
Wind Pressure Rain
since 9am
mm
Weather Cloud Vis
km
Sea
Height
m
Swell
Dir
 
Speed
knots
Gust
knots
hPa Trend Height
m
Period
s
Dir
25/11:30pm 26.5 E 13 15 1015.3 - - - - - - - - -
25/11:21pm 26.6 ENE 12 - 1015.4 - - - - - - - - -
25/11:00pm 26.5 ENE 12 15 1015.7 - - - - - - - - -
25/10:30pm 26.5 ENE 11 13 1016.0 - - - - - - - - -
25/10:21pm 26.6 E 11 - 1016.0 - - - - - - - - -
25/10:00pm 26.7 E 11 13 1016.2 - - - - - - - - -
25/09:30pm 26.8 E 11 12 1016.1 - - - - - - - - -
25/09:21pm 26.9 E 10 - 1016.0 - - - - - - - - -
25/09:00pm 26.8 E 9 10 1016.1 - - - - - - - - -
25/08:30pm 26.8 E 10 12 1015.7 - - - - - - - - -
25/08:21pm 26.8 E 10 - 1015.5 - - - - - - - - -
25/08:00pm 26.8 E 10 11 1015.2 - - - - - - - - -
25/07:30pm 26.8 E 10 11 1015.0 - - - - - - - - -
25/07:21pm 26.9 E 10 - 1014.9 - - - - - - - - -
25/07:00pm 27.0 E 10 11 1014.6 - - - - - - - - -
25/06:30pm 26.8 E 8 9 1014.4 - - - - - - - - -
25/06:21pm 27.0 ESE 8 - 1014.3 - - - - - - - - -
25/06:00pm 27.1 SE 7 9 1014.3 - - - - - - - - -
25/05:30pm 27.2 SSE 5 7 1014.1 - - - - - - - - -
25/05:21pm 27.2 S 6 - 1013.8 - - - - - - - - -
25/05:00pm 27.2 S 5 7 1013.9 - - - - - - - - -
25/04:30pm 27.3 S 5 6 1013.8 - - - - - - - - -
25/04:21pm 27.2 S 6 - 1013.7 - - - - - - - - -
25/04:00pm 27.0 S 6 7 1013.7 - - - - - - - - -
25/03:30pm 27.1 SE 5 6 1013.6 - - - - - - - - -
25/03:21pm 27.1 E 5 - 1013.5 - - - - - - - - -
25/03:00pm 27.3 E 5 6 1013.6 - - - - - - - - -
25/02:30pm 27.2 E 5 6 1013.6 - - - - - - - - -
25/02:21pm 27.1 E 5 - 1013.6 - - - - - - - - -
25/02:00pm 27.3 SSE 5 7 1013.9 - - - - - - - - -
25/01:30pm 27.8 ESE 3 4 1014.2 - - - - - - - - -
25/01:21pm 27.8 ESE 3 - 1014.2 - - - - - - - - -
25/01:00pm 28.0 ESE 1 3 1014.5 - - - - - - - - -
25/12:30pm 27.6 ESE 3 4 1014.9 - - - - - - - - -
25/12:21pm 27.8 ESE 1 - 1014.9 - - - - - - - - -
25/12:00pm 27.8 CALM 0 3 1015.3 - - - - - - - - -
25/11:30am 27.9 ESE 2 4 1015.7 - - - - - - - - -
25/11:21am 27.9 E 4 - 1015.7 - - - - - - - - -
25/11:00am 27.4 ENE 4 5 1015.9 - - - - - - - - -
25/10:30am 27.4 ENE 5 6 1015.9 - - - - - - - - -
25/10:21am 27.4 ENE 5 - 1015.8 - - - - - - - - -
25/10:00am 27.1 NE 6 7 1016.0 - - - - - - - - -
25/09:30am 27.0 NE 5 6 1015.9 - - - - - - - - -
25/09:21am 27.0 NE 6 - 1015.8 - - - - - - - - -
25/09:00am 26.9 ENE 6 7 1015.8 - - - - - - - - -
25/08:30am 27.0 ENE 6 8 1015.8 - - - - - - - - -
25/08:21am 26.9 ENE 7 - 1015.6 - - - - - - - - -
25/08:00am 26.9 E 6 7 1015.5 - - - - - - - - -
25/07:30am 26.7 ENE 7 8 1015.2 - - - - - - - - -
25/07:21am 26.6 ENE 6 - 1015.0 - - - - - - - - -
25/07:00am 27.0 ENE 6 7 1014.9 - - - - - - - - -
25/06:30am 26.5 ENE 7 8 1014.5 - - - - - - - - -
25/06:21am 26.5 ENE 7 - 1014.3 - - - - - - - - -
25/06:00am 26.3 ENE 6 7 1014.2 - - - - - - - - -
25/05:30am 26.4 NE 7 9 1014.0 - - - - - - - - -
25/05:21am 26.3 NE 8 - 1013.9 - - - - - - - - -
25/05:00am 26.5 NE 7 9 1013.8 - - - - - - - - -
25/04:30am 26.4 ENE 8 9 1013.6 - - - - - - - - -
25/04:21am 26.3 ENE 6 - 1013.4 - - - - - - - - -
25/04:00am 26.3 ENE 7 8 1013.4 - - - - - - - - -
25/03:30am 26.2 ENE 8 9 1013.5 - - - - - - - - -
25/03:21am 26.3 ENE 8 - 1013.4 - - - - - - - - -
25/03:00am 26.3 E 7 9 1013.5 - - - - - - - - -
25/02:30am 26.2 E 8 9 1013.7 - - - - - - - - -
25/02:21am 26.2 E 8 - 1013.7 - - - - - - - - -
25/02:00am 26.5 E 10 12 1013.8 - - - - - - - - -
25/01:30am 26.4 ENE 11 13 1013.7 - - - - - - - - -
25/01:21am 26.4 ENE 12 - 1013.6 - - - - - - - - -
25/01:00am 26.3 ENE 11 13 1013.8 - - - - - - - - -
25/12:30am 26.3 ENE 10 11 1014.2 - - - - - - - - -
25/12:21am 26.4 ENE 10 - 1014.1 - - - - - - - - -
25/12:00am 26.3 ENE 11 13 1014.2 - - - - - - - - -
 
Date/Time
EST
Temp

°C
Wind Pressure Rain
since 9am
mm
Weather Cloud Vis
km
Sea
Height
m
Swell
Dir
 
Speed
knots
Gust
knots
hPa Trend Height
m
Period
s
Dir
24/11:30pm 26.5 ENE 11 13 1014.5 - - - - - - - - -
24/11:21pm 26.4 ENE 11 - 1014.4 - - - - - - - - -
24/11:00pm 26.5 ENE 10 12 1014.6 - - - - - - - - -
24/10:30pm 26.5 E 10 11 1014.9 - - - - - - - - -
24/10:21pm 26.7 E 10 - 1014.8 - - - - - - - - -
24/10:00pm 26.6 E 10 11 1014.9 - - - - - - - - -
24/09:30pm 26.7 E 10 13 1015.0 - - - - - - - - -
24/09:21pm 26.7 ESE 10 - 1014.8 - - - - - - - - -
24/09:00pm 26.8 E 10 11 1015.0 - - - - - - - - -
24/08:30pm 26.7 ESE 9 11 1014.9 - - - - - - - - -
24/08:21pm 26.7 ESE 9 - 1014.7 - - - - - - - - -
24/08:00pm 26.7 ESE 8 10 1014.6 - - - - - - - - -
24/07:30pm 26.6 ESE 9 10 1014.4 - - - - - - - - -
24/07:21pm 26.7 ESE 8 - 1014.2 - - - - - - - - -
24/07:00pm 26.7 ESE 7 9 1014.2 - - - - - - - - -
24/06:30pm 26.8 ESE 7 9 1014.0 - - - - - - - - -
24/06:21pm 26.8 SE 8 - 1013.9 - - - - - - - - -
24/06:00pm 27.0 SSE 7 9 1013.7 - - - - - - - - -
24/05:30pm 27.0 S 6 7 1013.6 - - - - - - - - -
24/05:21pm 27.1 S 5 - 1013.4 - - - - - - - - -
24/05:00pm 27.2 S 6 7 1013.4 - - - - - - - - -
24/04:30pm 27.1 S 5 6 1013.1 - - - - - - - - -
24/04:21pm 27.2 S 5 - 1012.9 - - - - - - - - -
24/04:00pm 27.1 S 6 7 1012.9 - - - - - - - - -
24/03:30pm 27.0 S 5 6 1012.9 - - - - - - - - -
24/03:21pm 27.2 S 5 - 1012.8 - - - - - - - - -

Other Formats:

Comma delimited format used in spreadsheet applications
http://www.bom.gov.au/fwo/IDQ60701/IDQ60701.94371.axf

JavaScript Object Notation format (JSON) in row-major order
http://www.bom.gov.au/fwo/IDQ60701/IDQ60701.94371.json